EmailTwitter


Observations de surface / France / LFPO (07149)

Régions: Québec | Canada | États-Unis | Europe | France | UK | Ailleurs
Station
Affichage
Infos & localisation pour LFPO (07149) | Aide pour décoder les METARs

Observations prises le 2019-09-22 à 18H00 UTC à PARIS/ORLY, FR (LFPO)

Etat du ciel: partiellement nuageux.

Température: 17.0 Celsius

Point de rosée: 15.0 Celsius

Humidité relative: 88%

Indice Humidex: 21.

Vents: Sud à 15 km/h ou 8 noeuds.

Pression au niveau moyen de la mer: 101.00 kilopascals.

Visibilité horizontale: 6.21 milles terrestres ou 9.94 kilomètres.

Hauteur du plafond: 335 mètres ( 1100 pieds ).

Observation METAR:

LFPO 221800Z 19008KT 9999 SCT010 BKN011 17/15 Q1010=